sensor_id;sensor_type;location;lat;lon;timestamp;pressure;altitude;pressure_sealevel;temperature;humidity
39405;BME280;25121;51.090;17.038;2023-03-12T00:01:15;99460.69;;;1.18;72.21
39405;BME280;25121;51.090;17.038;2023-03-12T00:02:39;99431.78;;;1.05;72.48
39405;BME280;25121;51.090;17.038;2023-03-12T00:04:07;99462.94;;;1.23;72.51
39405;BME280;25121;51.090;17.038;2023-03-12T00:05:38;99431.50;;;1.08;72.36
39405;BME280;25121;51.090;17.038;2023-03-12T00:07:00;99467.31;;;1.34;72.56
39405;BME280;25121;51.090;17.038;2023-03-12T00:08:22;99473.72;;;1.31;72.60
39405;BME280;25121;51.090;17.038;2023-03-12T00:09:46;99440.63;;;1.16;72.58
39405;BME280;25121;51.090;17.038;2023-03-12T00:11:23;99439.19;;;1.12;72.58
39405;BME280;25121;51.090;17.038;2023-03-12T00:12:46;99478.06;;;1.32;72.45
39405;BME280;25121;51.090;17.038;2023-03-12T00:14:14;99418.38;;;0.97;72.57
39405;BME280;25121;51.090;17.038;2023-03-12T00:15:36;99435.16;;;1.07;72.63
39405;BME280;25121;51.090;17.038;2023-03-12T00:18:42;99463.66;;;1.25;72.88
39405;BME280;25121;51.090;17.038;2023-03-12T00:20:08;99461.13;;;1.23;72.72
39405;BME280;25121;51.090;17.038;2023-03-12T00:21:32;99463.94;;;1.32;72.49
39405;BME280;25121;51.090;17.038;2023-03-12T00:22:54;99473.97;;;1.28;72.46
39405;BME280;25121;51.090;17.038;2023-03-12T00:24:17;99470.22;;;1.31;72.37
39405;BME280;25121;51.090;17.038;2023-03-12T00:25:41;99420.03;;;0.98;72.51
39405;BME280;25121;51.090;17.038;2023-03-12T00:27:06;99475.63;;;1.29;72.24
39405;BME280;25121;51.090;17.038;2023-03-12T00:28:30;99469.41;;;1.30;72.33
39405;BME280;25121;51.090;17.038;2023-03-12T00:29:55;99459.59;;;1.21;72.61
39405;BME280;25121;51.090;17.038;2023-03-12T00:31:20;99477.34;;;1.30;72.38
39405;BME280;25121;51.090;17.038;2023-03-12T00:32:44;99475.91;;;1.26;72.54
39405;BME280;25121;51.090;17.038;2023-03-12T00:34:07;99477.34;;;1.30;72.48
39405;BME280;25121;51.090;17.038;2023-03-12T00:35:31;99473.00;;;1.29;72.67
39405;BME280;25121;51.090;17.038;2023-03-12T00:36:53;99482.63;;;1.30;72.63
39405;BME280;25121;51.090;17.038;2023-03-12T00:38:16;99463.94;;;1.22;72.60
39405;BME280;25121;51.090;17.038;2023-03-12T00:39:37;99475.63;;;1.29;72.57
39405;BME280;25121;51.090;17.038;2023-03-12T00:40:59;99473.84;;;1.29;72.54
39405;BME280;25121;51.090;17.038;2023-03-12T00:42:21;99470.63;;;1.26;72.40
39405;BME280;25121;51.090;17.038;2023-03-12T00:43:43;99447.84;;;1.14;72.37
39405;BME280;25121;51.090;17.038;2023-03-12T00:45:07;99472.31;;;1.27;72.47
39405;BME280;25121;51.090;17.038;2023-03-12T00:46:28;99474.69;;;1.30;72.52
39405;BME280;25121;51.090;17.038;2023-03-12T00:47:51;99463.94;;;1.22;72.50
39405;BME280;25121;51.090;17.038;2023-03-12T00:49:13;99477.47;;;1.28;72.70
39405;BME280;25121;51.090;17.038;2023-03-12T00:50:40;99453.28;;;1.12;72.35
39405;BME280;25121;51.090;17.038;2023-03-12T00:52:01;99453.97;;;1.14;72.39
39405;BME280;25121;51.090;17.038;2023-03-12T00:53:23;99460.56;;;1.20;72.15
39405;BME280;25121;51.090;17.038;2023-03-12T00:54:44;99480.81;;;1.31;72.36
39405;BME280;25121;51.090;17.038;2023-03-12T00:56:07;99462.13;;;1.22;72.18
39405;BME280;25121;51.090;17.038;2023-03-12T00:57:29;99476.63;;;1.28;72.24
39405;BME280;25121;51.090;17.038;2023-03-12T00:58:51;99470.50;;;1.27;72.00
39405;BME280;25121;51.090;17.038;2023-03-12T01:00:14;99475.63;;;1.29;72.40
39405;BME280;25121;51.090;17.038;2023-03-12T01:01:37;99469.78;;;1.25;72.02
39405;BME280;25121;51.090;17.038;2023-03-12T01:02:59;99463.06;;;1.21;72.16
39405;BME280;25121;51.090;17.038;2023-03-12T01:04:21;99473.25;;;1.26;72.26
39405;BME280;25121;51.090;17.038;2023-03-12T01:05:46;99469.22;;;1.22;72.26
39405;BME280;25121;51.090;17.038;2023-03-12T01:07:13;99424.63;;;0.96;72.01
39405;BME280;25121;51.090;17.038;2023-03-12T01:08:36;99474.97;;;1.27;71.98
39405;BME280;25121;51.090;17.038;2023-03-12T01:09:58;99480.38;;;1.25;72.13
39405;BME280;25121;51.090;17.038;2023-03-12T01:11:20;99470.31;;;1.19;71.80
39405;BME280;25121;51.090;17.038;2023-03-12T01:12:43;99481.19;;;1.26;72.06
39405;BME280;25121;51.090;17.038;2023-03-12T01:14:06;99422.50;;;0.90;71.94
39405;BME280;25121;51.090;17.038;2023-03-12T01:15:29;99455.47;;;1.07;72.04
39405;BME280;25121;51.090;17.038;2023-03-12T01:16:51;99484.69;;;1.26;72.26
39405;BME280;25121;51.090;17.038;2023-03-12T01:18:16;99473.53;;;1.23;72.04
39405;BME280;25121;51.090;17.038;2023-03-12T01:19:37;99483.03;;;1.25;71.90
39405;BME280;25121;51.090;17.038;2023-03-12T01:21:03;99460.50;;;1.10;71.84
39405;BME280;25121;51.090;17.038;2023-03-12T01:22:26;99487.31;;;1.26;72.02
39405;BME280;25121;51.090;17.038;2023-03-12T01:23:48;99469.34;;;1.20;72.08
39405;BME280;25121;51.090;17.038;2023-03-12T01:25:11;99470.31;;;1.19;71.93
39405;BME280;25121;51.090;17.038;2023-03-12T01:26:32;99479.53;;;1.25;72.19
39405;BME280;25121;51.090;17.038;2023-03-12T01:27:54;99480.38;;;1.25;71.84
39405;BME280;25121;51.090;17.038;2023-03-12T01:29:17;99456.75;;;1.13;71.77
39405;BME280;25121;51.090;17.038;2023-03-12T01:30:39;99473.41;;;1.24;71.91
39405;BME280;25121;51.090;17.038;2023-03-12T01:32:01;99465.25;;;1.16;71.85
39405;BME280;25121;51.090;17.038;2023-03-12T01:33:25;99468.34;;;1.21;71.76
39405;BME280;25121;51.090;17.038;2023-03-12T01:34:48;99470.75;;;1.24;71.87
39405;BME280;25121;51.090;17.038;2023-03-12T01:36:19;99469.22;;;1.22;71.70
39405;BME280;25121;51.090;17.038;2023-03-12T01:37:42;99438.63;;;1.08;71.93
39405;BME280;25121;51.090;17.038;2023-03-12T01:39:06;99418.06;;;0.91;71.75
39405;BME280;25121;51.090;17.038;2023-03-12T01:40:32;99456.59;;;1.14;71.77
39405;BME280;25121;51.090;17.038;2023-03-12T01:41:54;99458.56;;;1.12;71.83
39405;BME280;25121;51.090;17.038;2023-03-12T01:43:28;99456.88;;;1.11;71.49
39405;BME280;25121;51.090;17.038;2023-03-12T01:44:55;99474.38;;;1.23;71.61
39405;BME280;25121;51.090;17.038;2023-03-12T01:46:26;99468.34;;;1.21;71.47
39405;BME280;25121;51.090;17.038;2023-03-12T01:47:50;99465.72;;;1.21;71.88
39405;BME280;25121;51.090;17.038;2023-03-12T01:49:14;99477.84;;;1.24;71.43
39405;BME280;25121;51.090;17.038;2023-03-12T01:50:38;99465.03;;;1.19;71.87
39405;BME280;25121;51.090;17.038;2023-03-12T01:52:04;99470.88;;;1.23;71.57
39405;BME280;25121;51.090;17.038;2023-03-12T01:53:38;99464.44;;;1.16;71.67
39405;BME280;25121;51.090;17.038;2023-03-12T01:55:05;99476.19;;;1.23;71.41
39405;BME280;25121;51.090;17.038;2023-03-12T01:56:33;99475.47;;;1.21;71.56
39405;BME280;25121;51.090;17.038;2023-03-12T01:57:56;99467.06;;;1.16;71.54
39405;BME280;25121;51.090;17.038;2023-03-12T01:59:20;99474.75;;;1.19;71.44
39405;BME280;25121;51.090;17.038;2023-03-12T02:00:44;99477.16;;;1.22;71.84
39405;BME280;25121;51.090;17.038;2023-03-12T02:02:06;99474.91;;;1.17;71.54
39405;BME280;25121;51.090;17.038;2023-03-12T02:03:30;99474.50;;;1.22;71.62
39405;BME280;25121;51.090;17.038;2023-03-12T02:05:01;99484.25;;;1.21;71.73
39405;BME280;25121;51.090;17.038;2023-03-12T02:06:28;99474.03;;;1.17;71.81
39405;BME280;25121;51.090;17.038;2023-03-12T02:07:53;99473.34;;;1.15;71.56
39405;BME280;25121;51.090;17.038;2023-03-12T02:09:16;99486.88;;;1.21;71.64
39405;BME280;25121;51.090;17.038;2023-03-12T02:10:41;99489.53;;;1.21;71.30
39405;BME280;25121;51.090;17.038;2023-03-12T02:12:04;99473.47;;;1.13;71.12
39405;BME280;25121;51.090;17.038;2023-03-12T02:13:30;99485.22;;;1.20;71.41
39405;BME280;25121;51.090;17.038;2023-03-12T02:14:52;99480.31;;;1.16;71.31
39405;BME280;25121;51.090;17.038;2023-03-12T02:16:14;99447.16;;;0.91;71.19
39405;BME280;25121;51.090;17.038;2023-03-12T02:17:37;99469.66;;;1.06;71.15
39405;BME280;25121;51.090;17.038;2023-03-12T02:19:01;99489.78;;;1.18;71.30
39405;BME280;25121;51.090;17.038;2023-03-12T02:20:27;99491.50;;;1.19;71.29
39405;BME280;25121;51.090;17.038;2023-03-12T02:21:52;99477.34;;;1.09;71.23
39405;BME280;25121;51.090;17.038;2023-03-12T02:23:24;99488.13;;;1.17;70.98
39405;BME280;25121;51.090;17.038;2023-03-12T02:24:52;99486.44;;;1.16;71.29
39405;BME280;25121;51.090;17.038;2023-03-12T02:26:21;99488.25;;;1.16;71.51
39405;BME280;25121;51.090;17.038;2023-03-12T02:27:47;99489.91;;;1.17;71.28
39405;BME280;25121;51.090;17.038;2023-03-12T02:29:08;99489.34;;;1.13;71.08
39405;BME280;25121;51.090;17.038;2023-03-12T02:30:32;99462.50;;;0.97;71.09
39405;BME280;25121;51.090;17.038;2023-03-12T02:31:55;99493.44;;;1.17;71.14
39405;BME280;25121;51.090;17.038;2023-03-12T02:33:18;99444.31;;;0.82;71.24
39405;BME280;25121;51.090;17.038;2023-03-12T02:34:41;99499.56;;;1.18;71.17
39405;BME280;25121;51.090;17.038;2023-03-12T02:36:04;99505.56;;;1.20;70.95
39405;BME280;25121;51.090;17.038;2023-03-12T02:37:26;99462.38;;;0.98;70.93
39405;BME280;25121;51.090;17.038;2023-03-12T02:38:50;99497.84;;;1.17;70.77
39405;BME280;25121;51.090;17.038;2023-03-12T02:40:16;99497.75;;;1.18;70.76
39405;BME280;25121;51.090;17.038;2023-03-12T02:41:43;99500.00;;;1.23;70.85
39405;BME280;25121;51.090;17.038;2023-03-12T02:43:08;99493.66;;;1.14;70.85
39405;BME280;25121;51.090;17.038;2023-03-12T02:44:31;99498.72;;;1.17;70.78
39405;BME280;25121;51.090;17.038;2023-03-12T02:45:59;99500.38;;;1.18;70.57
39405;BME280;25121;51.090;17.038;2023-03-12T02:47:20;99500.25;;;1.20;70.46
39405;BME280;25121;51.090;17.038;2023-03-12T02:48:46;99511.41;;;1.23;70.56
39405;BME280;25121;51.090;17.038;2023-03-12T02:50:09;99503.47;;;1.23;70.47
39405;BME280;25121;51.090;17.038;2023-03-12T02:51:32;99508.78;;;1.23;70.55
39405;BME280;25121;51.090;17.038;2023-03-12T02:52:54;99491.22;;;1.22;70.41
39405;BME280;25121;51.090;17.038;2023-03-12T02:54:16;99501.81;;;1.22;70.30
39405;BME280;25121;51.090;17.038;2023-03-12T02:55:39;99495.81;;;1.20;70.51
39405;BME280;25121;51.090;17.038;2023-03-12T02:57:02;99510.19;;;1.27;70.16
39405;BME280;25121;51.090;17.038;2023-03-12T02:58:25;99472.56;;;1.03;70.25
39405;BME280;25121;51.090;17.038;2023-03-12T02:59:47;99499.16;;;1.22;70.20
39405;BME280;25121;51.090;17.038;2023-03-12T03:01:09;99506.72;;;1.27;70.16
39405;BME280;25121;51.090;17.038;2023-03-12T03:02:33;99512.69;;;1.29;70.37
39405;BME280;25121;51.090;17.038;2023-03-12T03:03:55;99514.50;;;1.28;70.04
39405;BME280;25121;51.090;17.038;2023-03-12T03:05:17;99515.50;;;1.27;70.11
39405;BME280;25121;51.090;17.038;2023-03-12T03:06:42;99495.94;;;1.19;70.15
39405;BME280;25121;51.090;17.038;2023-03-12T03:08:04;99514.50;;;1.28;70.54
39405;BME280;25121;51.090;17.038;2023-03-12T03:09:27;99518.16;;;1.27;70.00
39405;BME280;25121;51.090;17.038;2023-03-12T03:10:50;99515.34;;;1.29;70.03
39405;BME280;25121;51.090;17.038;2023-03-12T03:12:14;99519.09;;;1.26;69.90
39405;BME280;25121;51.090;17.038;2023-03-12T03:13:41;99516.22;;;1.29;70.37
39405;BME280;25121;51.090;17.038;2023-03-12T03:15:05;99514.50;;;1.28;69.98
39405;BME280;25121;51.090;17.038;2023-03-12T03:16:29;99483.22;;;1.13;69.98
39405;BME280;25121;51.090;17.038;2023-03-12T03:17:51;99487.91;;;1.09;69.72
39405;BME280;25121;51.090;17.038;2023-03-12T03:19:13;99489.63;;;1.10;70.08
39405;BME280;25121;51.090;17.038;2023-03-12T03:20:35;99484.59;;;1.07;69.80
39405;BME280;25121;51.090;17.038;2023-03-12T03:21:58;99490.84;;;1.06;69.76
39405;BME280;25121;51.090;17.038;2023-03-12T03:23:23;99519.50;;;1.22;69.86
39405;BME280;25121;51.090;17.038;2023-03-12T03:24:44;99497.56;;;1.10;69.84
39405;BME280;25121;51.090;17.038;2023-03-12T03:26:07;99531.22;;;1.29;69.64
39405;BME280;25121;51.090;17.038;2023-03-12T03:27:30;99492.66;;;1.05;69.71
39405;BME280;25121;51.090;17.038;2023-03-12T03:28:53;99508.13;;;1.10;69.62
39405;BME280;25121;51.090;17.038;2023-03-12T03:30:16;99524.31;;;1.17;69.61
39405;BME280;25121;51.090;17.038;2023-03-12T03:31:40;99502.97;;;1.08;69.68
39405;BME280;25121;51.090;17.038;2023-03-12T03:33:03;99544.34;;;1.31;69.79
39405;BME280;25121;51.090;17.038;2023-03-12T03:34:27;99532.03;;;1.20;69.51
39405;BME280;25121;51.090;17.038;2023-03-12T03:35:50;99526.59;;;1.21;69.45
39405;BME280;25121;51.090;17.038;2023-03-12T03:37:11;99506.97;;;1.03;69.34
39405;BME280;25121;51.090;17.038;2023-03-12T03:38:34;99545.56;;;1.26;69.84
39405;BME280;25121;51.090;17.038;2023-03-12T03:39:56;99534.53;;;1.21;69.58
39405;BME280;25121;51.090;17.038;2023-03-12T03:41:19;99554.09;;;1.30;69.37
39405;BME280;25121;51.090;17.038;2023-03-12T03:42:42;99517.75;;;1.11;69.78
39405;BME280;25121;51.090;17.038;2023-03-12T03:44:04;99549.75;;;1.29;69.71
39405;BME280;25121;51.090;17.038;2023-03-12T03:45:29;99543.91;;;1.25;69.69
39405;BME280;25121;51.090;17.038;2023-03-12T03:46:52;99543.63;;;1.28;69.80
39405;BME280;25121;51.090;17.038;2023-03-12T03:48:15;99544.47;;;1.29;69.48
39405;BME280;25121;51.090;17.038;2023-03-12T03:49:40;99550.63;;;1.29;69.50
39405;BME280;25121;51.090;17.038;2023-03-12T03:51:05;99518.72;;;1.10;69.51
39405;BME280;25121;51.090;17.038;2023-03-12T03:52:29;99539.00;;;1.21;69.26
39405;BME280;25121;51.090;17.038;2023-03-12T03:53:55;99524.72;;;1.12;69.51
39405;BME280;25121;51.090;17.038;2023-03-12T03:55:19;99545.72;;;1.25;69.43
39405;BME280;25121;51.090;17.038;2023-03-12T03:56:42;99547.38;;;1.26;69.31
39405;BME280;25121;51.090;17.038;2023-03-12T03:58:30;99543.19;;;1.23;69.59
39405;BME280;25121;51.090;17.038;2023-03-12T03:59:52;99543.19;;;1.23;69.64
39405;BME280;25121;51.090;17.038;2023-03-12T04:01:15;99543.19;;;1.23;69.45
39405;BME280;25121;51.090;17.038;2023-03-12T04:02:39;99542.47;;;1.21;69.18
39405;BME280;25121;51.090;17.038;2023-03-12T04:04:04;99553.38;;;1.28;69.29
39405;BME280;25121;51.090;17.038;2023-03-12T04:05:26;99539.00;;;1.21;69.29
39405;BME280;25121;51.090;17.038;2023-03-12T04:06:49;99549.91;;;1.27;69.07
39405;BME280;25121;51.090;17.038;2023-03-12T04:08:10;99543.06;;;1.25;69.15
39405;BME280;25121;51.090;17.038;2023-03-12T04:09:33;99551.72;;;1.27;69.09
39405;BME280;25121;51.090;17.038;2023-03-12T04:10:55;99551.72;;;1.27;69.11
39405;BME280;25121;51.090;17.038;2023-03-12T04:12:17;99551.56;;;1.28;69.31
39405;BME280;25121;51.090;17.038;2023-03-12T04:13:41;99546.81;;;1.22;69.03
39405;BME280;25121;51.090;17.038;2023-03-12T04:15:04;99530.25;;;1.09;69.10
39405;BME280;25121;51.090;17.038;2023-03-12T04:16:27;99555.22;;;1.27;69.05
39405;BME280;25121;51.090;17.038;2023-03-12T04:17:49;99529.44;;;1.08;68.91
39405;BME280;25121;51.090;17.038;2023-03-12T04:19:12;99564.81;;;1.28;69.02
39405;BME280;25121;51.090;17.038;2023-03-12T04:20:35;99559.97;;;1.34;68.77
39405;BME280;25121;51.090;17.038;2023-03-12T04:21:57;99566.81;;;1.36;68.68
39405;BME280;25121;51.090;17.038;2023-03-12T04:23:19;99572.81;;;1.38;68.90
39405;BME280;25121;51.090;17.038;2023-03-12T04:24:41;99570.06;;;1.40;68.98
39405;BME280;25121;51.090;17.038;2023-03-12T04:26:03;99575.81;;;1.45;68.75
39405;BME280;25121;51.090;17.038;2023-03-12T04:27:29;99576.53;;;1.47;68.77
39405;BME280;25121;51.090;17.038;2023-03-12T04:28:53;99567.59;;;1.48;68.73
39405;BME280;25121;51.090;17.038;2023-03-12T04:30:14;99570.69;;;1.53;68.66
39405;BME280;25121;51.090;17.038;2023-03-12T04:31:37;99577.41;;;1.57;68.59
39405;BME280;25121;51.090;17.038;2023-03-12T04:32:59;99575.34;;;1.61;68.62
39405;BME280;25121;51.090;17.038;2023-03-12T04:34:21;99577.59;;;1.65;68.81
39405;BME280;25121;51.090;17.038;2023-03-12T04:35:49;99578.16;;;1.69;68.64
39405;BME280;25121;51.090;17.038;2023-03-12T04:37:13;99585.88;;;1.72;68.78
39405;BME280;25121;51.090;17.038;2023-03-12T04:38:39;99567.28;;;1.62;68.44
39405;BME280;25121;51.090;17.038;2023-03-12T04:40:01;99586.03;;;1.80;68.24
39405;BME280;25121;51.090;17.038;2023-03-12T04:41:27;99586.59;;;1.84;68.39
39405;BME280;25121;51.090;17.038;2023-03-12T04:42:58;99592.50;;;1.87;68.09
39405;BME280;25121;51.090;17.038;2023-03-12T04:44:24;99528.19;;;1.55;68.10
39405;BME280;25121;51.090;17.038;2023-03-12T04:45:46;99582.72;;;1.88;68.05
39405;BME280;25121;51.090;17.038;2023-03-12T04:47:08;99572.41;;;1.85;67.90
39405;BME280;25121;51.090;17.038;2023-03-12T04:48:34;99585.69;;;1.94;67.73
39405;BME280;25121;51.090;17.038;2023-03-12T04:49:56;99592.09;;;1.92;67.82
39405;BME280;25121;51.090;17.038;2023-03-12T04:51:18;99525.16;;;1.59;67.81
39405;BME280;25121;51.090;17.038;2023-03-12T04:52:40;99591.13;;;1.93;67.23
39405;BME280;25121;51.090;17.038;2023-03-12T04:54:03;99600.88;;;1.92;67.15
39405;BME280;25121;51.090;17.038;2023-03-12T04:55:26;99591.91;;;1.84;66.97
39405;BME280;25121;51.090;17.038;2023-03-12T04:56:48;99601.16;;;1.89;66.96
39405;BME280;25121;51.090;17.038;2023-03-12T04:58:13;99599.47;;;1.88;66.75
39405;BME280;25121;51.090;17.038;2023-03-12T04:59:36;99610.06;;;1.88;67.00
39405;BME280;25121;51.090;17.038;2023-03-12T05:00:59;99611.03;;;1.87;66.85
39405;BME280;25121;51.090;17.038;2023-03-12T05:02:20;99602.38;;;1.85;67.06
39405;BME280;25121;51.090;17.038;2023-03-12T05:03:42;99609.81;;;1.91;67.13
39405;BME280;25121;51.090;17.038;2023-03-12T05:05:05;99611.75;;;1.89;66.98
39405;BME280;25121;51.090;17.038;2023-03-12T05:06:28;99620.25;;;1.93;66.85
39405;BME280;25121;51.090;17.038;2023-03-12T05:07:50;99608.44;;;1.97;67.04
39405;BME280;25121;51.090;17.038;2023-03-12T05:09:12;99615.13;;;2.01;66.52
39405;BME280;25121;51.090;17.038;2023-03-12T05:10:34;99615.03;;;2.03;66.59
39405;BME280;25121;51.090;17.038;2023-03-12T05:11:56;99607.91;;;2.03;66.48
39405;BME280;25121;51.090;17.038;2023-03-12T05:13:21;99603.72;;;2.01;66.24
39405;BME280;25121;51.090;17.038;2023-03-12T05:14:48;99616.84;;;2.02;66.21
39405;BME280;25121;51.090;17.038;2023-03-12T05:16:11;99619.50;;;2.02;66.07
39405;BME280;25121;51.090;17.038;2023-03-12T05:17:33;99602.31;;;1.97;66.01
39405;BME280;25121;51.090;17.038;2023-03-12T05:18:58;99608.44;;;1.97;65.86
39405;BME280;25121;51.090;17.038;2023-03-12T05:20:23;99615.69;;;1.95;66.08
39405;BME280;25121;51.090;17.038;2023-03-12T05:21:44;99609.56;;;1.94;65.80
39405;BME280;25121;51.090;17.038;2023-03-12T05:23:07;99587.16;;;1.78;65.58
39405;BME280;25121;51.090;17.038;2023-03-12T05:24:28;99607.28;;;1.90;65.70
39405;BME280;25121;51.090;17.038;2023-03-12T05:25:54;99618.44;;;1.93;65.69
39405;BME280;25121;51.090;17.038;2023-03-12T05:27:16;99612.72;;;1.88;65.46
39405;BME280;25121;51.090;17.038;2023-03-12T05:28:39;99618.72;;;1.90;65.44
39405;BME280;25121;51.090;17.038;2023-03-12T05:30:04;99624.28;;;1.87;65.34
39405;BME280;25121;51.090;17.038;2023-03-12T05:31:29;99617.06;;;1.89;65.58
39405;BME280;25121;51.090;17.038;2023-03-12T05:32:57;99608.06;;;1.81;65.48
39405;BME280;25121;51.090;17.038;2023-03-12T05:34:21;99588.91;;;1.67;65.67
39405;BME280;25121;51.090;17.038;2023-03-12T05:35:43;99576.69;;;1.55;65.43
39405;BME280;25121;51.090;17.038;2023-03-12T05:37:04;99619.81;;;1.88;65.28
39405;BME280;25121;51.090;17.038;2023-03-12T05:38:26;99630.69;;;1.85;65.77
39405;BME280;25121;51.090;17.038;2023-03-12T05:39:47;99616.16;;;1.79;66.02
39405;BME280;25121;51.090;17.038;2023-03-12T05:41:17;99625.41;;;1.85;65.53
39405;BME280;25121;51.090;17.038;2023-03-12T05:42:40;99624.69;;;1.83;65.71
39405;BME280;25121;51.090;17.038;2023-03-12T05:44:02;99624.41;;;1.86;65.38
39405;BME280;25121;51.090;17.038;2023-03-12T05:45:27;99628.31;;;1.82;65.63
39405;BME280;25121;51.090;17.038;2023-03-12T05:46:52;99631.53;;;1.85;65.94
39405;BME280;25121;51.090;17.038;2023-03-12T05:48:19;99620.59;;;1.79;65.46
39405;BME280;25121;51.090;17.038;2023-03-12T05:49:42;99629.84;;;1.84;65.48
39405;BME280;25121;51.090;17.038;2023-03-12T05:51:05;99643.81;;;1.86;65.30
39405;BME280;25121;51.090;17.038;2023-03-12T05:52:27;99633.22;;;1.86;65.03
39405;BME280;25121;51.090;17.038;2023-03-12T05:53:50;99637.16;;;1.92;65.01
39405;BME280;25121;51.090;17.038;2023-03-12T05:55:13;99610.16;;;1.77;64.84
39405;BME280;25121;51.090;17.038;2023-03-12T05:56:36;99629.19;;;1.92;64.76
39405;BME280;25121;51.090;17.038;2023-03-12T05:57:59;99617.19;;;1.88;64.91
39405;BME280;25121;51.090;17.038;2023-03-12T05:59:22;99638.16;;;2.01;64.72
39405;BME280;25121;51.090;17.038;2023-03-12T06:00:47;99645.72;;;2.05;64.41
39405;BME280;25121;51.090;17.038;2023-03-12T06:02:15;99646.44;;;2.07;64.48
39405;BME280;25121;51.090;17.038;2023-03-12T06:03:40;99611.75;;;1.89;64.42
39405;BME280;25121;51.090;17.038;2023-03-12T06:05:06;99643.66;;;2.09;64.47
39405;BME280;25121;51.090;17.038;2023-03-12T06:06:30;99639.19;;;2.09;64.66
39405;BME280;25121;51.090;17.038;2023-03-12T06:07:51;99650.50;;;2.11;64.46
39405;BME280;25121;51.090;17.038;2023-03-12T06:09:14;99657.91;;;2.18;64.07
39405;BME280;25121;51.090;17.038;2023-03-12T06:10:39;99619.75;;;1.99;63.99
39405;BME280;25121;51.090;17.038;2023-03-12T06:12:01;99649.25;;;2.15;63.71
39405;BME280;25121;51.090;17.038;2023-03-12T06:13:23;99644.50;;;2.09;63.72
39405;BME280;25121;51.090;17.038;2023-03-12T06:14:48;99668.00;;;2.24;63.63
39405;BME280;25121;51.090;17.038;2023-03-12T06:16:15;99671.94;;;2.29;63.35
39405;BME280;25121;51.090;17.038;2023-03-12T06:17:42;99655.72;;;2.23;63.37
39405;BME280;25121;51.090;17.038;2023-03-12T06:19:04;99676.84;;;2.34;63.49
39405;BME280;25121;51.090;17.038;2023-03-12T06:20:27;99669.56;;;2.36;63.30
39405;BME280;25121;51.090;17.038;2023-03-12T06:21:49;99659.63;;;2.28;63.21
39405;BME280;25121;51.090;17.038;2023-03-12T06:23:11;99665.84;;;2.39;62.88
39405;BME280;25121;51.090;17.038;2023-03-12T06:24:32;99674.09;;;2.45;63.02
39405;BME280;25121;51.090;17.038;2023-03-12T06:25:58;99669.78;;;2.44;62.88
39405;BME280;25121;51.090;17.038;2023-03-12T06:27:20;99667.84;;;2.46;62.97
39405;BME280;25121;51.090;17.038;2023-03-12T06:28:43;99672.59;;;2.52;62.62
39405;BME280;25121;51.090;17.038;2023-03-12T06:30:06;99683.50;;;2.59;62.71
39405;BME280;25121;51.090;17.038;2023-03-12T06:31:30;99687.44;;;2.65;62.69
39405;BME280;25121;51.090;17.038;2023-03-12T06:32:53;99685.34;;;2.68;62.22
39405;BME280;25121;51.090;17.038;2023-03-12T06:34:15;99668.97;;;2.63;62.26
39405;BME280;25121;51.090;17.038;2023-03-12T06:35:37;99683.00;;;2.75;62.23
39405;BME280;25121;51.090;17.038;2023-03-12T06:37:02;99682.72;;;2.78;62.15
39405;BME280;25121;51.090;17.038;2023-03-12T06:38:24;99688.06;;;2.88;62.06
39405;BME280;25121;51.090;17.038;2023-03-12T06:39:47;99673.81;;;2.89;62.18
39405;BME280;25121;51.090;17.038;2023-03-12T06:41:17;99664.03;;;2.89;61.82
39405;BME280;25121;51.090;17.038;2023-03-12T06:42:40;99656.19;;;2.88;62.22
39405;BME280;25121;51.090;17.038;2023-03-12T06:44:09;99627.44;;;2.73;61.76
39405;BME280;25121;51.090;17.038;2023-03-12T06:45:32;99674.53;;;3.10;61.83
39405;BME280;25121;51.090;17.038;2023-03-12T06:46:56;99678.19;;;3.19;61.62
39405;BME280;25121;51.090;17.038;2023-03-12T06:48:18;99686.19;;;3.29;61.47
39405;BME280;25121;51.090;17.038;2023-03-12T06:49:39;99685.50;;;3.36;61.15
39405;BME280;25121;51.090;17.038;2023-03-12T06:51:02;99691.94;;;3.53;61.12
39405;BME280;25121;51.090;17.038;2023-03-12T06:52:23;99694.59;;;3.63;60.85
39405;BME280;25121;51.090;17.038;2023-03-12T06:53:46;99680.19;;;3.65;60.63
39405;BME280;25121;51.090;17.038;2023-03-12T06:55:11;99701.16;;;3.88;60.35
39405;BME280;25121;51.090;17.038;2023-03-12T06:56:33;99700.69;;;4.02;60.08
39405;BME280;25121;51.090;17.038;2023-03-12T06:57:59;99666.00;;;3.94;59.77
39405;BME280;25121;51.090;17.038;2023-03-12T06:59:22;99705.09;;;4.31;59.53
39405;BME280;25121;51.090;17.038;2023-03-12T07:00:46;99665.53;;;4.18;59.19
39405;BME280;25121;51.090;17.038;2023-03-12T07:02:11;99709.63;;;4.58;58.84
39405;BME280;25121;51.090;17.038;2023-03-12T07:03:37;99679.97;;;4.53;58.50
39405;BME280;25121;51.090;17.038;2023-03-12T07:05:00;99713.00;;;4.88;58.18
39405;BME280;25121;51.090;17.038;2023-03-12T07:06:23;99705.28;;;4.94;58.13
39405;BME280;25121;51.090;17.038;2023-03-12T07:07:45;99704.97;;;4.97;57.92
39405;BME280;25121;51.090;17.038;2023-03-12T07:09:10;99705.63;;;5.09;57.76
39405;BME280;25121;51.090;17.038;2023-03-12T07:10:36;99698.34;;;5.29;57.19
39405;BME280;25121;51.090;17.038;2023-03-12T07:12:03;99665.13;;;5.24;57.14
39405;BME280;25121;51.090;17.038;2023-03-12T07:13:29;99715.16;;;5.66;57.23
39405;BME280;25121;51.090;17.038;2023-03-12T07:15:00;99724.91;;;5.75;57.00
39405;BME280;25121;51.090;17.038;2023-03-12T07:16:23;99720.88;;;6.07;56.44
39405;BME280;25121;51.090;17.038;2023-03-12T07:17:50;99723.38;;;6.08;56.06
39405;BME280;25121;51.090;17.038;2023-03-12T07:19:12;99691.53;;;6.07;55.77
39405;BME280;25121;51.090;17.038;2023-03-12T07:20:40;99681.00;;;6.05;55.36
39405;BME280;25121;51.090;17.038;2023-03-12T07:22:11;99721.88;;;6.32;55.27
39405;BME280;25121;51.090;17.038;2023-03-12T07:23:36;99699.19;;;6.36;54.94
39405;BME280;25121;51.090;17.038;2023-03-12T07:25:05;99713.56;;;6.61;54.35
39405;BME280;25121;51.090;17.038;2023-03-12T07:26:28;99704.78;;;6.77;53.91